Time;durP1;ratioP1;P1;durP2;ratioP2;P2;SDS_P1;SDS_P2;PMS_P1;PMS_P2;Temp;Humidity;BMP_temperature;BMP_pressure;BME280_temperature;BME280_humidity;BME280_pressure;Samples;Min_cycle;Max_cycle;Signal;HPM_P1;HPM_P2
2023/09/11 00:01:31;;;;;;;22.95;20.50;;;22.90;99.90;;;;;;5108793;27;20042;-77
2023/09/11 00:03:57;;;;;;;22.77;19.13;;;22.80;99.90;;;;;;5129404;27;20099;-76
2023/09/11 00:06:25;;;;;;;24.50;19.27;;;22.70;99.90;;;;;;5115720;27;20039;-76
2023/09/11 00:08:51;;;;;;;21.55;19.25;;;22.80;99.90;;;;;;5110701;27;20034;-76
2023/09/11 00:11:17;;;;;;;21.30;18.88;;;22.80;99.90;;;;;;5114456;27;20038;-76
2023/09/11 00:13:43;;;;;;;23.05;20.40;;;22.70;99.90;;;;;;5100063;27;20041;-76
2023/09/11 00:16:08;;;;;;;22.48;19.45;;;22.70;99.90;;;;;;5118459;27;20460;-76
2023/09/11 00:18:34;;;;;;;22.38;19.88;;;22.70;99.90;;;;;;5117108;27;20039;-76
2023/09/11 00:21:00;;;;;;;20.52;18.50;;;22.60;99.90;;;;;;5116650;27;20125;-77
2023/09/11 00:23:26;;;;;;;24.08;19.60;;;22.60;99.90;;;;;;5099100;27;20639;-77
2023/09/11 00:25:52;;;;;;;23.55;19.13;;;22.70;99.90;;;;;;5095243;27;20038;-77
2023/09/11 00:28:17;;;;;;;21.77;18.38;;;22.60;99.90;;;;;;5098178;27;20089;-78
2023/09/11 00:30:43;;;;;;;21.00;18.88;;;22.60;99.90;;;;;;5104784;27;20039;-77
2023/09/11 00:33:09;;;;;;;19.95;17.65;;;22.60;99.90;;;;;;5100557;27;20045;-78
2023/09/11 00:35:35;;;;;;;20.05;17.95;;;22.60;99.90;;;;;;5100443;27;20054;-78
2023/09/11 00:38:01;;;;;;;20.95;18.73;;;22.60;99.90;;;;;;5111856;27;20065;-77
2023/09/11 00:40:26;;;;;;;20.20;16.75;;;22.70;99.90;;;;;;5084491;27;20031;-78
2023/09/11 00:42:52;;;;;;;22.77;18.52;;;22.60;99.90;;;;;;5114918;27;20058;-78
2023/09/11 00:45:18;;;;;;;19.80;17.80;;;22.60;99.90;;;;;;5082214;27;20039;-77
2023/09/11 00:47:46;;;;;;;25.40;17.98;;;22.60;99.90;;;;;;5083307;27;20046;-78
2023/09/11 00:50:15;;;;;;;22.45;19.55;;;22.50;99.90;;;;;;5104768;27;20027;-77
2023/09/11 00:52:42;;;;;;;19.63;17.67;;;22.60;99.90;;;;;;5097652;27;20042;-78
2023/09/11 00:55:09;;;;;;;22.48;19.52;;;22.50;99.90;;;;;;5080441;27;20087;-78
2023/09/11 00:57:35;;;;;;;22.85;18.05;;;22.60;99.90;;;;;;5101407;27;20035;-78
2023/09/11 01:00:03;;;;;;;23.25;18.45;;;22.50;99.90;;;;;;5088477;27;20035;-78
2023/09/11 01:02:29;;;;;;;20.70;18.50;;;22.50;99.90;;;;;;5117770;27;20064;-77
2023/09/11 01:04:55;;;;;;;21.00;18.73;;;22.40;99.90;;;;;;5097828;27;20498;-78
2023/09/11 01:07:20;;;;;;;23.23;19.95;;;22.40;99.90;;;;;;5113688;27;20643;-77
2023/09/11 01:09:46;;;;;;;20.45;17.67;;;22.40;99.90;;;;;;5116675;27;20046;-77
2023/09/11 01:12:12;;;;;;;21.83;18.80;;;22.40;99.90;;;;;;5084446;27;20043;-78
2023/09/11 01:14:38;;;;;;;26.05;19.85;;;22.40;99.90;;;;;;5113504;27;20129;-77
2023/09/11 01:17:17;;;;;;;21.05;18.88;;;22.30;99.90;;;;;;5104613;27;20031;-76
2023/09/11 01:19:55;;;;;;;23.10;19.92;;;22.30;99.90;;;;;;5097247;27;20050;-78
2023/09/11 01:22:32;;;;;;;20.33;18.20;;;22.30;99.90;;;;;;5095290;27;20405;-78
2023/09/11 01:25:07;;;;;;;21.58;19.08;;;22.20;99.90;;;;;;5107147;27;20161;-77
2023/09/11 01:28:13;;;;;;;21.35;18.92;;;22.30;99.90;;;;;;5107612;27;20042;-77
2023/09/11 01:30:40;;;;;;;19.67;17.65;;;22.30;99.90;;;;;;5099259;27;20379;-77
2023/09/11 01:33:06;;;;;;;22.08;18.70;;;22.30;99.90;;;;;;5120042;27;20474;-76
2023/09/11 01:35:31;;;;;;;21.33;19.20;;;22.30;99.90;;;;;;5094740;27;20046;-77
2023/09/11 01:37:59;;;;;;;25.42;19.23;;;22.20;99.90;;;;;;5083836;27;20030;-76
2023/09/11 01:40:26;;;;;;;20.73;18.42;;;22.30;99.90;;;;;;5114501;27;20403;-77
2023/09/11 01:42:56;;;;;;;20.88;18.20;;;22.20;99.90;;;;;;5115093;27;20043;-76
2023/09/11 01:45:22;;;;;;;22.35;19.60;;;22.20;99.90;;;;;;5100218;27;20099;-77
2023/09/11 01:47:51;;;;;;;19.00;16.90;;;22.20;99.90;;;;;;5099249;27;20054;-78
2023/09/11 01:50:20;;;;;;;23.30;18.88;;;22.10;99.90;;;;;;5088089;27;20117;-77
2023/09/11 01:52:51;;;;;;;24.23;20.15;;;22.20;99.90;;;;;;5098457;27;20095;-77
2023/09/11 01:55:17;;;;;;;19.98;17.90;;;22.20;99.90;;;;;;5104660;27;20537;-76
2023/09/11 01:57:43;;;;;;;21.38;16.92;;;22.10;99.90;;;;;;5112507;27;20039;-77
2023/09/11 02:00:11;;;;;;;20.00;17.38;;;22.20;99.90;;;;;;5091895;27;20418;-77
2023/09/11 02:02:37;;;;;;;19.20;17.23;;;22.20;99.90;;;;;;5104819;27;20115;-78
2023/09/11 02:05:03;;;;;;;20.20;17.35;;;22.20;99.90;;;;;;5111844;27;20153;-77
2023/09/11 02:07:29;;;;;;;21.55;17.13;;;22.20;99.90;;;;;;5088006;27;20042;-77
2023/09/11 02:09:54;;;;;;;23.73;17.15;;;22.20;99.90;;;;;;5094058;27;20035;-77
2023/09/11 02:12:22;;;;;;;19.83;17.25;;;22.20;99.90;;;;;;5121036;27;20034;-78
2023/09/11 02:14:48;;;;;;;21.65;17.20;;;22.30;99.90;;;;;;5101464;27;20086;-77
2023/09/11 02:17:14;;;;;;;19.48;17.45;;;22.30;99.90;;;;;;5117270;27;20034;-77
2023/09/11 02:19:39;;;;;;;18.35;16.52;;;22.40;99.90;;;;;;5102853;27;20035;-77
2023/09/11 02:22:05;;;;;;;22.83;17.27;;;22.50;99.90;;;;;;5100594;27;20090;-77
2023/09/11 02:24:31;;;;;;;20.83;17.17;;;22.50;99.90;;;;;;5097925;27;20054;-78
2023/09/11 02:26:57;;;;;;;19.63;16.90;;;22.50;99.90;;;;;;5102699;27;20495;-78
2023/09/11 02:29:23;;;;;;;20.30;16.40;;;22.50;99.90;;;;;;5114152;27;20526;-78
2023/09/11 02:31:48;;;;;;;18.48;16.45;;;22.40;99.90;;;;;;5096375;27;20079;-78
2023/09/11 02:34:14;;;;;;;23.45;16.52;;;22.50;99.90;;;;;;5069157;27;20117;-78
2023/09/11 02:36:40;;;;;;;19.02;16.77;;;22.50;99.90;;;;;;5114302;27;20043;-78
2023/09/11 02:39:05;;;;;;;22.13;17.58;;;22.50;99.90;;;;;;5117777;27;20066;-78
2023/09/11 02:41:31;;;;;;;19.85;17.67;;;22.50;99.90;;;;;;5072642;27;20038;-78
2023/09/11 02:43:58;;;;;;;22.42;17.05;;;22.50;99.90;;;;;;5098586;27;20028;-79
2023/09/11 02:46:24;;;;;;;20.35;16.67;;;22.50;99.90;;;;;;5110393;27;20090;-79
2023/09/11 02:48:49;;;;;;;25.33;17.85;;;22.40;99.90;;;;;;5079945;27;21688;-79
2023/09/11 02:51:17;;;;;;;21.00;16.92;;;22.50;99.90;;;;;;5104500;27;20121;-79
2023/09/11 02:53:42;;;;;;;22.27;16.73;;;22.50;99.90;;;;;;5098637;27;20091;-77
2023/09/11 02:56:08;;;;;;;20.83;15.52;;;22.40;99.90;;;;;;5102498;27;20043;-78
2023/09/11 02:58:34;;;;;;;22.90;17.60;;;22.50;99.90;;;;;;5099563;27;20034;-76
2023/09/11 03:01:05;;;;;;;23.92;17.45;;;22.40;99.90;;;;;;5105072;27;20046;-78
2023/09/11 03:03:31;;;;;;;24.38;17.30;;;22.40;99.90;;;;;;5093318;27;20031;-79
2023/09/11 03:05:58;;;;;;;27.10;16.67;;;22.40;99.90;;;;;;5101494;27;20038;-78
2023/09/11 03:08:24;;;;;;;27.50;17.77;;;22.40;99.90;;;;;;5088863;27;20039;-80
2023/09/11 03:10:50;;;;;;;25.85;17.73;;;22.50;99.90;;;;;;5100211;28;20043;-78
2023/09/11 03:13:16;;;;;;;17.52;15.65;;;22.40;99.90;;;;;;5114971;27;21266;-77
2023/09/11 03:15:44;;;;;;;22.50;17.58;;;22.40;99.90;;;;;;5119027;27;20046;-78
2023/09/11 03:18:10;;;;;;;21.27;17.80;;;22.30;99.90;;;;;;5098903;27;20034;-78
2023/09/11 03:20:36;;;;;;;21.52;15.98;;;22.40;99.90;;;;;;5097240;27;20035;-79
2023/09/11 03:23:02;;;;;;;25.77;17.10;;;22.40;99.90;;;;;;5110120;27;20398;-78
2023/09/11 03:25:32;;;;;;;23.15;17.33;;;22.40;99.90;;;;;;5110771;27;20702;-80
2023/09/11 03:27:58;;;;;;;21.90;15.98;;;22.20;99.90;;;;;;5098524;27;20035;-77
2023/09/11 03:30:23;;;;;;;19.75;16.60;;;22.20;99.90;;;;;;5078872;27;20054;-78
2023/09/11 03:32:50;;;;;;;25.52;17.20;;;22.20;99.90;;;;;;5078330;27;20043;-77
2023/09/11 03:35:16;;;;;;;23.70;17.25;;;22.20;99.90;;;;;;5125151;27;20039;-77
2023/09/11 03:37:42;;;;;;;22.50;17.02;;;22.20;99.90;;;;;;5073457;27;20111;-78
2023/09/11 03:40:13;;;;;;;22.75;16.80;;;22.30;99.90;;;;;;5081438;27;20943;-80
2023/09/11 03:42:40;;;;;;;22.33;16.85;;;22.30;99.90;;;;;;5091964;27;20356;-80
2023/09/11 03:45:07;;;;;;;20.48;15.63;;;22.20;99.90;;;;;;5114620;27;20031;-77
2023/09/11 03:47:33;;;;;;;18.70;16.33;;;22.20;99.90;;;;;;5096770;27;20069;-78
2023/09/11 03:50:01;;;;;;;25.50;15.77;;;22.20;99.90;;;;;;5109119;27;20490;-78
2023/09/11 03:52:27;;;;;;;19.45;15.93;;;22.20;99.90;;;;;;5106435;27;20028;-78
2023/09/11 03:54:53;;;;;;;18.65;16.05;;;22.20;99.90;;;;;;5099235;27;20084;-78
2023/09/11 03:57:18;;;;;;;20.40;16.80;;;22.10;99.90;;;;;;5089572;27;20038;-78
2023/09/11 03:59:44;;;;;;;23.75;16.67;;;22.10;99.90;;;;;;5100922;27;20035;-77
2023/09/11 04:02:10;;;;;;;24.35;16.95;;;22.10;99.90;;;;;;5086576;27;20031;-77
2023/09/11 04:04:35;;;;;;;22.83;16.95;;;22.10;99.90;;;;;;5099935;27;20849;-77
2023/09/11 04:07:01;;;;;;;22.30;15.93;;;22.10;99.90;;;;;;5090630;27;20035;-77
2023/09/11 04:09:30;;;;;;;24.85;17.92;;;22.10;99.90;;;;;;5110780;27;20034;-78
2023/09/11 04:11:56;;;;;;;22.10;17.88;;;22.00;99.90;;;;;;5104939;27;20842;-77
2023/09/11 04:14:22;;;;;;;23.42;17.23;;;22.00;99.90;;;;;;5097129;27;20084;-78
2023/09/11 04:16:48;;;;;;;27.27;16.73;;;22.00;99.90;;;;;;5098810;27;20054;-77
2023/09/11 04:19:13;;;;;;;21.35;17.20;;;22.00;99.90;;;;;;5086377;27;20387;-77
2023/09/11 04:21:39;;;;;;;23.35;17.38;;;22.00;99.90;;;;;;5091881;27;20052;-78
2023/09/11 04:24:12;;;;;;;22.42;17.45;;;22.00;99.90;;;;;;5084165;27;20042;-78
2023/09/11 04:26:44;;;;;;;20.07;15.47;;;22.00;99.90;;;;;;5108672;27;20126;-77
2023/09/11 04:29:10;;;;;;;26.80;18.02;;;22.00;99.90;;;;;;5119300;27;20399;-79
2023/09/11 04:31:36;;;;;;;22.77;16.65;;;21.90;99.90;;;;;;5100476;27;20050;-78
2023/09/11 04:34:02;;;;;;;21.30;16.98;;;22.00;99.90;;;;;;5078978;27;20038;-79
2023/09/11 04:36:28;;;;;;;21.25;16.88;;;22.00;99.90;;;;;;5109690;27;20084;-79
2023/09/11 04:38:54;;;;;;;23.60;16.70;;;22.00;99.90;;;;;;5094865;27;20046;-78
2023/09/11 04:41:21;;;;;;;24.38;16.25;;;22.00;99.90;;;;;;5107504;27;20058;-79
2023/09/11 04:43:46;;;;;;;23.95;17.98;;;22.00;99.90;;;;;;5122650;27;20091;-78
2023/09/11 04:46:12;;;;;;;19.88;16.92;;;22.00;99.90;;;;;;5100140;27;20047;-79
2023/09/11 04:48:38;;;;;;;23.70;16.40;;;22.00;99.90;;;;;;5089122;27;20039;-78
2023/09/11 04:51:04;;;;;;;19.90;16.08;;;22.00;99.90;;;;;;5074689;27;20031;-77
2023/09/11 04:53:30;;;;;;;19.27;16.08;;;21.90;99.90;;;;;;5096494;27;20053;-76
2023/09/11 04:55:56;;;;;;;25.02;17.92;;;22.00;99.90;;;;;;5083199;27;20031;-77
2023/09/11 04:58:22;;;;;;;26.13;16.50;;;22.00;99.90;;;;;;5113562;27;20135;-77
2023/09/11 05:00:48;;;;;;;20.45;16.40;;;22.00;99.90;;;;;;5099773;27;20058;-81
2023/09/11 05:03:14;;;;;;;22.38;17.25;;;22.00;99.90;;;;;;5094184;27;20039;-78
2023/09/11 05:05:41;;;;;;;28.30;16.83;;;22.00;99.90;;;;;;5094732;27;20371;-79
2023/09/11 05:08:07;;;;;;;21.85;16.92;;;22.00;99.90;;;;;;5099038;27;20498;-78
2023/09/11 05:10:33;;;;;;;24.08;16.98;;;22.00;99.90;;;;;;5099293;27;20509;-79
2023/09/11 05:12:59;;;;;;;24.95;18.13;;;22.00;99.90;;;;;;5098287;27;20045;-78
2023/09/11 05:15:24;;;;;;;23.13;17.42;;;22.00;99.90;;;;;;5113347;27;20066;-78
2023/09/11 05:17:51;;;;;;;20.15;16.15;;;22.00;99.90;;;;;;5091704;27;20066;-78
2023/09/11 05:20:17;;;;;;;22.95;15.75;;;22.10;99.90;;;;;;5083989;27;20098;-78
2023/09/11 05:22:43;;;;;;;22.45;16.52;;;22.10;99.90;;;;;;5089501;27;20466;-77
2023/09/11 05:25:09;;;;;;;20.83;15.77;;;22.10;99.90;;;;;;5082812;27;20096;-77
2023/09/11 05:27:34;;;;;;;20.98;16.52;;;22.10;99.90;;;;;;5115553;27;20050;-77
2023/09/11 05:30:00;;;;;;;24.15;16.52;;;22.20;99.90;;;;;;5087530;27;20039;-78
2023/09/11 05:32:26;;;;;;;26.92;17.67;;;22.20;99.90;;;;;;5103143;27;20035;-76
2023/09/11 05:34:52;;;;;;;21.65;16.10;;;22.20;99.90;;;;;;5085358;27;20070;-78
2023/09/11 05:37:18;;;;;;;25.73;17.70;;;22.30;99.90;;;;;;5115038;27;20463;-78
2023/09/11 05:39:45;;;;;;;19.25;16.45;;;22.30;99.90;;;;;;5100178;27;20054;-78
2023/09/11 05:42:11;;;;;;;20.40;16.30;;;22.40;99.90;;;;;;5072355;27;20066;-78
2023/09/11 05:44:37;;;;;;;20.95;16.17;;;22.40;99.90;;;;;;5102480;27;20077;-78
2023/09/11 05:47:03;;;;;;;22.13;16.90;;;22.40;99.90;;;;;;5083590;27;20052;-79
2023/09/11 05:49:29;;;;;;;20.88;16.15;;;22.40;99.90;;;;;;5093663;27;20538;-77
2023/09/11 05:51:57;;;;;;;26.23;17.92;;;22.50;99.90;;;;;;5111852;27;20067;-79
2023/09/11 05:54:23;;;;;;;22.33;15.98;;;22.50;99.90;;;;;;5096086;28;20114;-80
2023/09/11 05:56:50;;;;;;;23.38;15.95;;;22.50;99.90;;;;;;5123916;27;20095;-80
2023/09/11 05:59:18;;;;;;;20.67;15.48;;;22.60;99.90;;;;;;5127076;27;20058;-80
2023/09/11 06:01:46;;;;;;;23.02;16.75;;;22.60;99.90;;;;;;5093943;27;20509;-80
2023/09/11 06:04:11;;;;;;;19.67;15.43;;;22.70;99.90;;;;;;5093422;27;20126;-76
2023/09/11 06:06:38;;;;;;;22.33;16.23;;;22.70;99.90;;;;;;5100992;27;20122;-73
2023/09/11 06:09:07;;;;;;;23.33;16.67;;;22.80;99.90;;;;;;5101222;28;20039;-77
2023/09/11 06:11:34;;;;;;;25.83;16.10;;;22.80;99.90;;;;;;5090987;28;20891;-74
2023/09/11 06:14:00;;;;;;;21.60;15.98;;;22.90;99.90;;;;;;5090662;27;20418;-76
2023/09/11 06:16:26;;;;;;;22.42;15.25;;;22.90;99.90;;;;;;5112947;27;20036;-77
2023/09/11 06:18:51;;;;;;;20.40;14.98;;;23.00;99.90;;;;;;5109632;27;20046;-77
2023/09/11 06:21:18;;;;;;;22.65;16.35;;;23.10;99.90;;;;;;5112124;27;20043;-77
2023/09/11 06:23:43;;;;;;;22.95;15.68;;;23.20;99.90;;;;;;5111584;27;20367;-76
2023/09/11 06:26:10;;;;;;;22.85;14.43;;;23.20;99.90;;;;;;5093441;27;20047;-77
2023/09/11 06:28:36;;;;;;;19.92;14.02;;;23.20;99.90;;;;;;5111957;27;20650;-77
2023/09/11 06:31:02;;;;;;;20.85;15.38;;;23.20;99.90;;;;;;5086382;28;20080;-77
2023/09/11 06:33:28;;;;;;;21.17;15.05;;;23.30;99.90;;;;;;5133392;27;20697;-77
2023/09/11 06:35:54;;;;;;;27.33;15.98;;;23.30;99.90;;;;;;5081104;27;20041;-77
2023/09/11 06:38:21;;;;;;;24.38;15.27;;;23.40;99.90;;;;;;5091871;27;20035;-76
2023/09/11 06:40:47;;;;;;;21.33;14.95;;;23.40;99.90;;;;;;5094360;27;20082;-77
2023/09/11 06:43:13;;;;;;;20.98;15.43;;;23.40;99.90;;;;;;5093109;27;20471;-78
2023/09/11 06:45:38;;;;;;;18.88;15.05;;;23.40;99.90;;;;;;5089051;28;20527;-76
2023/09/11 06:48:05;;;;;;;23.25;15.80;;;23.40;99.90;;;;;;5093895;27;20118;-75
2023/09/11 06:50:31;;;;;;;28.85;15.95;;;23.50;99.90;;;;;;5118714;27;20042;-75
2023/09/11 06:52:57;;;;;;;21.25;15.30;;;23.50;99.90;;;;;;5094022;28;20375;-77
2023/09/11 06:55:23;;;;;;;21.08;15.88;;;23.50;99.90;;;;;;5110714;27;20038;-77
2023/09/11 06:58:00;;;;;;;21.95;15.15;;;23.60;99.90;;;;;;5094307;27;20039;-76
2023/09/11 07:00:26;;;;;;;24.98;15.52;;;23.70;99.90;;;;;;5111247;28;20075;-76
2023/09/11 07:02:52;;;;;;;25.60;15.75;;;23.70;99.90;;;;;;5089370;28;20482;-77
2023/09/11 07:05:22;;;;;;;18.48;14.88;;;23.80;99.90;;;;;;5113737;28;20166;-78
2023/09/11 07:07:48;;;;;;;27.80;15.85;;;23.80;99.90;;;;;;5088801;28;20092;-77
2023/09/11 07:10:17;;;;;;;20.95;14.27;;;23.90;99.90;;;;;;5089700;28;20444;-77
2023/09/11 07:12:47;;;;;;;21.35;15.10;;;24.00;99.90;;;;;;5085076;28;20059;-76
2023/09/11 07:15:13;;;;;;;18.90;14.45;;;24.00;99.90;;;;;;5090525;28;20711;-77
2023/09/11 07:17:39;;;;;;;24.00;15.80;;;24.10;99.90;;;;;;5122611;28;20042;-76
2023/09/11 07:20:05;;;;;;;28.02;15.27;;;24.20;99.90;;;;;;5090321;28;20402;-77
2023/09/11 07:22:32;;;;;;;26.67;15.88;;;24.30;99.90;;;;;;5105068;28;20035;-77
2023/09/11 07:24:58;;;;;;;16.33;14.45;;;24.40;99.90;;;;;;5090008;28;20420;-76
2023/09/11 07:27:26;;;;;;;25.13;14.82;;;24.40;99.90;;;;;;5105252;28;20027;-77
2023/09/11 07:29:52;;;;;;;28.52;15.82;;;24.50;99.90;;;;;;5077465;28;20043;-77
2023/09/11 07:32:18;;;;;;;19.98;14.68;;;24.70;99.90;;;;;;5086076;28;20035;-76
2023/09/11 07:34:43;;;;;;;28.77;14.93;;;24.80;99.90;;;;;;5105371;28;20547;-76
2023/09/11 07:37:09;;;;;;;17.40;14.50;;;24.80;99.90;;;;;;5089225;28;20051;-76
2023/09/11 07:39:35;;;;;;;22.23;13.73;;;24.90;99.90;;;;;;5079865;28;20528;-76
2023/09/11 07:42:01;;;;;;;19.90;14.05;;;25.00;99.90;;;;;;5084480;28;20119;-75
2023/09/11 07:44:26;;;;;;;17.88;12.88;;;25.10;99.90;;;;;;5113879;28;20031;-77
2023/09/11 07:46:52;;;;;;;17.73;12.98;;;25.10;99.90;;;;;;5110857;28;20114;-76
2023/09/11 07:49:18;;;;;;;17.23;12.80;;;25.30;99.90;;;;;;5092549;28;20051;-75
2023/09/11 07:51:45;;;;;;;21.48;12.68;;;25.40;99.90;;;;;;5116508;28;20763;-75
2023/09/11 07:54:11;;;;;;;15.55;11.45;;;25.40;99.90;;;;;;5120142;28;20054;-75
2023/09/11 07:56:37;;;;;;;18.83;13.38;;;25.60;99.90;;;;;;5128221;28;20491;-76
2023/09/11 07:59:04;;;;;;;16.65;12.13;;;25.80;99.90;;;;;;5076865;28;20078;-75
2023/09/11 08:01:30;;;;;;;15.65;12.00;;;25.80;99.90;;;;;;5108291;28;20035;-77
2023/09/11 08:03:56;;;;;;;16.55;11.73;;;25.90;99.90;;;;;;5090195;28;20047;-77
2023/09/11 08:06:23;;;;;;;18.02;12.93;;;25.90;99.90;;;;;;5125824;28;20074;-76
2023/09/11 08:08:49;;;;;;;22.00;12.05;;;26.00;99.90;;;;;;5089577;28;20081;-76
2023/09/11 08:11:18;;;;;;;20.35;12.40;;;26.10;99.90;;;;;;5103265;28;21217;-75
2023/09/11 08:13:46;;;;;;;16.48;12.10;;;26.10;99.90;;;;;;5109217;28;20053;-76
2023/09/11 08:16:13;;;;;;;20.02;11.38;;;26.20;99.90;;;;;;5092331;27;20043;-76
2023/09/11 08:18:38;;;;;;;17.27;11.85;;;26.20;99.90;;;;;;5114503;27;20031;-76
2023/09/11 08:21:04;;;;;;;15.35;11.50;;;26.30;99.90;;;;;;5114215;27;20049;-76
2023/09/11 08:23:30;;;;;;;19.20;11.18;;;26.40;99.90;;;;;;5103584;27;20058;-76
2023/09/11 08:25:57;;;;;;;21.17;11.32;;;26.40;99.90;;;;;;5124354;27;20037;-75
2023/09/11 08:28:23;;;;;;;18.27;11.65;;;26.60;99.90;;;;;;5129975;27;20371;-75
2023/09/11 08:30:50;;;;;;;18.50;12.13;;;26.60;99.90;;;;;;5097326;27;20043;-75
2023/09/11 08:33:16;;;;;;;14.18;11.23;;;26.80;99.90;;;;;;5112530;27;20047;-76
2023/09/11 08:35:42;;;;;;;17.60;10.98;;;26.90;99.90;;;;;;5094253;28;20067;-76
2023/09/11 08:38:09;;;;;;;14.98;10.35;;;27.00;99.90;;;;;;5111224;27;20044;-76
2023/09/11 08:40:35;;;;;;;14.13;10.85;;;27.10;99.90;;;;;;5125048;27;20126;-76
2023/09/11 08:43:02;;;;;;;20.05;10.50;;;27.10;99.90;;;;;;5106613;27;20442;-77
2023/09/11 08:45:28;;;;;;;12.63;8.98;;;27.40;99.90;;;;;;5115345;27;20107;-76
2023/09/11 08:47:58;;;;;;;17.83;9.88;;;27.50;99.90;;;;;;5117245;27;20042;-75
2023/09/11 08:50:35;;;;;;;15.45;9.73;;;27.60;99.90;;;;;;5110011;27;20042;-77
2023/09/11 08:53:02;;;;;;;13.57;9.20;;;27.60;99.90;;;;;;5127389;27;20677;-77
2023/09/11 08:55:29;;;;;;;11.02;8.98;;;27.80;99.90;;;;;;5117553;27;20041;-75
2023/09/11 08:57:59;;;;;;;12.38;8.35;;;27.90;99.90;;;;;;5114278;27;20035;-77
2023/09/11 09:00:27;;;;;;;13.68;9.27;;;28.00;99.90;;;;;;5129228;27;20117;-76
2023/09/11 09:02:53;;;;;;;10.43;8.23;;;28.20;99.90;;;;;;5118450;27;20838;-76
2023/09/11 09:05:21;;;;;;;14.88;9.48;;;28.30;99.90;;;;;;5122666;27;20109;-75
2023/09/11 09:07:48;;;;;;;13.50;9.63;;;28.30;99.90;;;;;;5102982;27;20039;-77
2023/09/11 09:10:15;;;;;;;13.20;10.07;;;28.40;99.90;;;;;;5121740;27;20083;-75
2023/09/11 09:12:42;;;;;;;11.25;8.75;;;28.50;99.90;;;;;;5114097;27;20035;-76
2023/09/11 09:15:09;;;;;;;15.20;8.63;;;28.60;99.90;;;;;;5111027;27;20047;-76
2023/09/11 09:17:35;;;;;;;13.52;8.40;;;28.70;99.90;;;;;;5132432;27;20034;-74
2023/09/11 09:20:01;;;;;;;15.43;8.57;;;28.70;99.90;;;;;;5093966;27;20058;-75
2023/09/11 09:22:26;;;;;;;13.70;8.07;;;28.70;99.90;;;;;;5080108;27;20103;-76
2023/09/11 09:24:53;;;;;;;13.95;7.65;;;28.70;99.90;;;;;;5086688;27;20061;-76
2023/09/11 09:27:28;;;;;;;15.10;8.63;;;28.90;99.90;;;;;;5113893;27;20110;-75
2023/09/11 09:29:53;;;;;;;10.38;7.22;;;29.00;99.90;;;;;;5096666;27;20031;-75
2023/09/11 09:32:19;;;;;;;12.73;7.25;;;29.00;99.90;;;;;;5094607;27;20031;-74
2023/09/11 09:34:51;;;;;;;15.40;7.57;;;29.20;99.90;;;;;;5103302;27;20602;-76
2023/09/11 09:37:19;;;;;;;13.13;7.35;;;29.20;99.90;;;;;;5099322;27;20031;-75
2023/09/11 09:39:48;;;;;;;11.98;7.25;;;29.30;99.90;;;;;;5097255;27;20050;-75
2023/09/11 09:42:14;;;;;;;10.18;7.00;;;29.60;99.90;;;;;;5128229;27;20035;-75
2023/09/11 09:44:42;;;;;;;13.00;6.82;;;29.80;99.90;;;;;;5114234;27;20168;-74
2023/09/11 09:47:16;;;;;;;13.48;7.15;;;30.00;99.90;;;;;;5108971;28;20372;-75
2023/09/11 09:49:50;;;;;;;;;;;30.20;99.90;;;;;;5093077;28;20428;-75
2023/09/11 09:52:18;;;;;;;;;;;30.40;99.90;;;;;;5114649;27;19919;-76
2023/09/11 09:54:51;;;;;;;8.10;6.40;;;30.50;99.90;;;;;;5079295;28;19945;-75
2023/09/11 09:57:20;;;;;;;11.30;7.63;;;30.70;99.90;;;;;;5092474;28;20069;-75
2023/09/11 09:59:52;;;;;;;11.10;8.10;;;30.90;99.90;;;;;;5092465;28;20044;-75
2023/09/11 10:02:37;;;;;;;11.38;7.63;;;30.90;99.90;;;;;;5108389;27;20043;-76
2023/09/11 10:05:08;;;;;;;14.20;7.90;;;31.10;99.90;;;;;;5129407;27;20078;-76
2023/09/11 10:07:39;;;;;;;12.60;7.25;;;31.10;99.90;;;;;;5128455;27;20043;-76
2023/09/11 10:10:24;;;;;;;9.95;6.93;;;31.30;99.90;;;;;;5127769;27;20507;-75
2023/09/11 10:13:08;;;;;;;10.00;7.07;;;31.30;99.90;;;;;;5107471;27;20166;-76
2023/09/11 10:15:36;;;;;;;14.68;7.57;;;31.40;99.90;;;;;;5108117;28;20035;-75
2023/09/11 10:18:03;;;;;;;12.52;8.15;;;31.50;99.90;;;;;;5092673;28;20042;-75
2023/09/11 10:20:29;;;;;;;12.02;7.45;;;31.50;99.90;;;;;;5091744;28;20066;-75
2023/09/11 10:22:57;;;;;;;14.18;7.70;;;31.40;99.90;;;;;;5100200;27;20530;-75
2023/09/11 10:25:24;;;;;;;9.77;6.90;;;31.50;99.90;;;;;;5098481;28;20072;-75
2023/09/11 10:27:56;;;;;;;14.13;7.20;;;31.50;99.90;;;;;;5108534;28;20040;-75
2023/09/11 10:30:26;;;;;;;9.07;7.20;;;31.50;99.90;;;;;;5091394;28;20036;-75
2023/09/11 10:33:05;;;;;;;11.50;8.35;;;31.60;99.90;;;;;;5110896;27;20039;-75
2023/09/11 10:35:38;;;;;;;10.23;7.20;;;31.70;99.90;;;;;;5118374;27;20039;-75
2023/09/11 10:38:05;;;;;;;11.90;7.10;;;31.70;99.90;;;;;;5095073;28;20033;-75
2023/09/11 10:40:32;;;;;;;10.38;7.10;;;31.70;99.90;;;;;;5113540;27;20594;-75
2023/09/11 10:42:59;;;;;;;13.38;8.82;;;31.90;99.90;;;;;;5119866;27;20122;-74
2023/09/11 10:45:29;;;;;;;10.57;6.72;;;31.90;99.90;;;;;;5128131;27;20106;-75
2023/09/11 10:47:55;;;;;;;10.73;6.95;;;32.00;99.90;;;;;;5109642;27;20108;-74
2023/09/11 10:50:45;;;;;;;8.40;6.85;;;31.90;99.90;;;;;;5128787;27;20035;-75
2023/09/11 10:53:11;;;;;;;11.32;7.32;;;32.00;99.90;;;;;;5106641;27;20518;-75
2023/09/11 10:55:38;;;;;;;8.68;7.15;;;31.80;99.90;;;;;;5101789;28;20062;-75
2023/09/11 10:58:05;;;;;;;10.10;6.78;;;31.80;99.90;;;;;;5093413;28;20096;-75
2023/09/11 11:00:39;;;;;;;10.10;7.70;;;31.70;99.90;;;;;;5107778;27;20039;-75
2023/09/11 11:03:07;;;;;;;9.27;6.88;;;31.90;99.90;;;;;;5081113;28;20067;-75
2023/09/11 11:05:33;;;;;;;10.27;7.32;;;32.00;99.90;;;;;;5108114;28;20057;-75
2023/09/11 11:08:01;;;;;;;9.02;7.00;;;32.20;99.90;;;;;;5109418;28;20028;-75
2023/09/11 11:10:27;;;;;;;11.73;7.43;;;32.20;99.90;;;;;;5090559;28;20027;-75
2023/09/11 11:13:11;;;;;;;8.80;7.95;;;32.20;99.90;;;;;;5095215;28;20038;-75
2023/09/11 11:15:37;;;;;;;11.63;7.40;;;32.30;99.90;;;;;;5106298;28;20487;-76
2023/09/11 11:18:07;;;;;;;11.15;7.32;;;32.10;99.90;;;;;;5085061;28;20037;-75
2023/09/11 11:20:34;;;;;;;11.70;7.63;;;32.20;99.90;;;;;;5091012;28;20159;-74
2023/09/11 11:23:12;;;;;;;17.92;7.38;;;32.20;99.90;;;;;;5106942;28;20066;-75
2023/09/11 11:25:42;;;;;;;9.90;7.47;;;32.20;99.90;;;;;;5096588;28;20093;-76
2023/09/11 11:28:15;;;;;;;9.20;7.82;;;32.30;99.90;;;;;;5123706;27;20031;-76
2023/09/11 11:30:43;;;;;;;10.63;8.25;;;32.10;99.90;;;;;;5111894;28;20554;-76
2023/09/11 11:33:13;;;;;;;10.10;7.32;;;32.20;99.90;;;;;;5125971;28;20043;-75
2023/09/11 11:35:46;;;;;;;14.05;9.15;;;32.20;99.90;;;;;;5128943;28;20043;-76
2023/09/11 11:38:19;;;;;;;12.15;9.20;;;31.80;99.90;;;;;;5113557;28;20061;-77
2023/09/11 11:40:46;;;;;;;;;;;32.10;99.90;;;;;;5075018;28;20104;-76
2023/09/11 11:43:12;;;;;;;13.65;8.63;;;32.20;99.90;;;;;;5118868;28;19926;-77
2023/09/11 11:45:43;;;;;;;9.82;8.35;;;32.20;99.90;;;;;;5112017;28;20088;-75
2023/09/11 11:48:11;;;;;;;12.80;8.18;;;32.20;99.90;;;;;;5094529;28;20047;-75
2023/09/11 11:50:41;;;;;;;13.35;9.68;;;32.20;99.90;;;;;;5113545;27;20379;-76
2023/09/11 11:53:07;;;;;;;14.40;9.82;;;31.80;99.90;;;;;;5109211;27;20031;-75
2023/09/11 11:55:32;;;;;;;12.15;8.55;;;31.80;99.90;;;;;;5115295;27;20502;-76
2023/09/11 11:57:58;;;;;;;15.57;9.40;;;31.80;99.90;;;;;;5081937;27;20054;-76
2023/09/11 12:00:24;;;;;;;13.77;9.18;;;31.70;99.90;;;;;;5114969;27;20645;-76
2023/09/11 12:02:50;;;;;;;11.23;8.82;;;31.70;99.90;;;;;;5128167;27;20031;-75
2023/09/11 12:05:16;;;;;;;8.77;7.88;;;31.60;99.90;;;;;;5115133;27;20403;-75
2023/09/11 12:07:42;;;;;;;10.27;6.82;;;31.50;99.90;;;;;;5116670;27;20035;-75
2023/09/11 12:10:12;;;;;;;7.07;6.38;;;31.40;99.90;;;;;;5094922;28;20039;-76
2023/09/11 12:12:40;;;;;;;10.25;5.57;;;31.40;99.90;;;;;;5111612;28;20097;-75
2023/09/11 12:15:07;;;;;;;8.93;5.78;;;31.20;99.90;;;;;;5115980;27;20442;-75
2023/09/11 12:17:32;;;;;;;9.98;5.88;;;31.20;99.90;;;;;;5081824;28;20046;-75
2023/09/11 12:20:13;;;;;;;7.30;5.90;;;31.20;99.90;;;;;;5078420;27;20039;-75
2023/09/11 12:22:38;;;;;;;5.93;5.35;;;31.20;99.90;;;;;;5111442;28;20042;-76
2023/09/11 12:25:05;;;;;;;8.55;5.53;;;31.20;99.90;;;;;;5078601;28;20123;-75
2023/09/11 12:27:31;;;;;;;7.57;6.15;;;31.30;99.90;;;;;;5107848;28;20040;-76
2023/09/11 12:29:57;;;;;;;8.70;6.75;;;31.10;99.90;;;;;;5077743;28;20062;-75
2023/09/11 12:32:23;;;;;;;8.05;7.25;;;31.20;99.90;;;;;;5077347;27;20035;-76